sensor_id;sensor_type;location;lat;lon;timestamp;pressure;altitude;pressure_sealevel;temperature;humidity
11395;BME280;5753;54.402;10.220;2023-06-14T00:01:48;102069.63;;;25.48;44.60
11395;BME280;5753;54.402;10.220;2023-06-14T00:04:14;102068.78;;;25.14;44.97
11395;BME280;5753;54.402;10.220;2023-06-14T00:06:43;102074.97;;;25.13;45.41
11395;BME280;5753;54.402;10.220;2023-06-14T00:09:11;102077.22;;;23.67;48.93
11395;BME280;5753;54.402;10.220;2023-06-14T00:11:43;102083.59;;;23.99;48.88
11395;BME280;5753;54.402;10.220;2023-06-14T00:14:09;102072.31;;;25.13;45.87
11395;BME280;5753;54.402;10.220;2023-06-14T00:16:36;102079.06;;;24.48;47.36
11395;BME280;5753;54.402;10.220;2023-06-14T00:19:03;102067.53;;;25.93;44.25
11395;BME280;5753;54.402;10.220;2023-06-14T00:21:30;102067.94;;;25.46;44.84
11395;BME280;5753;54.402;10.220;2023-06-14T00:23:58;102070.66;;;25.77;44.02
11395;BME280;5753;54.402;10.220;2023-06-14T00:26:24;102073.75;;;25.26;44.97
11395;BME280;5753;54.402;10.220;2023-06-14T00:28:52;102083.59;;;24.42;47.03
11395;BME280;5753;54.402;10.220;2023-06-14T00:31:18;102078.94;;;25.29;45.90
11395;BME280;5753;54.402;10.220;2023-06-14T00:33:44;102080.84;;;25.24;45.77
11395;BME280;5753;54.402;10.220;2023-06-14T00:36:11;102086.16;;;24.02;49.05
11395;BME280;5753;54.402;10.220;2023-06-14T00:38:37;102087.34;;;25.10;46.20
11395;BME280;5753;54.402;10.220;2023-06-14T00:41:03;102089.66;;;25.23;46.07
11395;BME280;5753;54.402;10.220;2023-06-14T00:43:29;102081.41;;;25.35;46.04
11395;BME280;5753;54.402;10.220;2023-06-14T00:45:56;102084.38;;;25.57;45.03
11395;BME280;5753;54.402;10.220;2023-06-14T00:48:23;102090.00;;;24.30;48.35
11395;BME280;5753;54.402;10.220;2023-06-14T00:50:51;102086.78;;;24.56;47.71
11395;BME280;5753;54.402;10.220;2023-06-14T00:53:19;102085.75;;;24.65;47.72
11395;BME280;5753;54.402;10.220;2023-06-14T00:55:48;102085.59;;;24.71;47.56
11395;BME280;5753;54.402;10.220;2023-06-14T00:58:15;102090.28;;;23.72;50.56
11395;BME280;5753;54.402;10.220;2023-06-14T01:00:42;102084.53;;;23.96;49.84
11395;BME280;5753;54.402;10.220;2023-06-14T01:03:08;102085.81;;;24.62;48.45
11395;BME280;5753;54.402;10.220;2023-06-14T01:05:38;102085.88;;;25.33;46.58
11395;BME280;5753;54.402;10.220;2023-06-14T01:11:03;102088.94;;;25.16;46.43
11395;BME280;5753;54.402;10.220;2023-06-14T01:13:36;102092.03;;;24.96;46.49
11395;BME280;5753;54.402;10.220;2023-06-14T01:16:04;102083.00;;;25.06;46.45
11395;BME280;5753;54.402;10.220;2023-06-14T01:18:31;102087.69;;;24.94;46.58
11395;BME280;5753;54.402;10.220;2023-06-14T01:20:58;102095.09;;;25.17;46.31
11395;BME280;5753;54.402;10.220;2023-06-14T01:23:24;102093.25;;;24.82;47.31
11395;BME280;5753;54.402;10.220;2023-06-14T01:25:51;102077.06;;;24.97;46.35
11395;BME280;5753;54.402;10.220;2023-06-14T01:28:21;102094.28;;;24.76;46.64
11395;BME280;5753;54.402;10.220;2023-06-14T01:30:52;102099.97;;;24.56;47.66
11395;BME280;5753;54.402;10.220;2023-06-14T01:33:24;102090.28;;;24.95;46.72
11395;BME280;5753;54.402;10.220;2023-06-14T01:35:53;102099.41;;;25.53;45.01
11395;BME280;5753;54.402;10.220;2023-06-14T01:38:21;102095.31;;;25.07;45.78
11395;BME280;5753;54.402;10.220;2023-06-14T01:40:49;102097.63;;;25.21;45.41
11395;BME280;5753;54.402;10.220;2023-06-14T01:43:17;102098.16;;;25.34;44.91
11395;BME280;5753;54.402;10.220;2023-06-14T01:45:46;102098.31;;;25.28;45.28
11395;BME280;5753;54.402;10.220;2023-06-14T01:48:14;102100.38;;;25.17;45.15
11395;BME280;5753;54.402;10.220;2023-06-14T01:50:40;102088.78;;;24.85;46.31
11395;BME280;5753;54.402;10.220;2023-06-14T01:53:08;102085.19;;;24.88;46.77
11395;BME280;5753;54.402;10.220;2023-06-14T01:55:34;102096.75;;;25.21;45.10
11395;BME280;5753;54.402;10.220;2023-06-14T01:58:06;102098.56;;;24.41;47.26
11395;BME280;5753;54.402;10.220;2023-06-14T02:00:33;102085.53;;;24.74;46.67
11395;BME280;5753;54.402;10.220;2023-06-14T02:02:59;102091.06;;;25.00;45.65
11395;BME280;5753;54.402;10.220;2023-06-14T02:05:25;102093.84;;;24.56;47.10
11395;BME280;5753;54.402;10.220;2023-06-14T02:07:52;102092.09;;;25.30;45.33
11395;BME280;5753;54.402;10.220;2023-06-14T02:10:19;102099.63;;;25.12;46.10
11395;BME280;5753;54.402;10.220;2023-06-14T02:12:46;102089.38;;;24.98;45.98
11395;BME280;5753;54.402;10.220;2023-06-14T02:15:12;102089.09;;;25.44;44.58
11395;BME280;5753;54.402;10.220;2023-06-14T02:17:43;102091.66;;;25.13;45.20
11395;BME280;5753;54.402;10.220;2023-06-14T02:20:09;102093.56;;;25.06;45.74
11395;BME280;5753;54.402;10.220;2023-06-14T02:22:35;102096.03;;;24.37;47.28
11395;BME280;5753;54.402;10.220;2023-06-14T02:25:01;102095.50;;;24.18;48.07
11395;BME280;5753;54.402;10.220;2023-06-14T02:27:28;102089.19;;;24.68;46.47
11395;BME280;5753;54.402;10.220;2023-06-14T02:29:54;102087.94;;;24.44;47.58
11395;BME280;5753;54.402;10.220;2023-06-14T02:32:20;102085.00;;;24.60;46.90
11395;BME280;5753;54.402;10.220;2023-06-14T02:34:46;102094.28;;;24.36;47.47
11395;BME280;5753;54.402;10.220;2023-06-14T02:37:16;102097.13;;;24.25;47.57
11395;BME280;5753;54.402;10.220;2023-06-14T02:39:42;102086.91;;;24.90;46.78
11395;BME280;5753;54.402;10.220;2023-06-14T02:42:08;102088.28;;;25.06;45.48
11395;BME280;5753;54.402;10.220;2023-06-14T02:44:34;102086.81;;;24.93;46.05
11395;BME280;5753;54.402;10.220;2023-06-14T02:47:01;102096.97;;;24.73;46.57
11395;BME280;5753;54.402;10.220;2023-06-14T02:49:27;102097.41;;;24.53;47.02
11395;BME280;5753;54.402;10.220;2023-06-14T02:51:53;102102.53;;;24.59;46.78
11395;BME280;5753;54.402;10.220;2023-06-14T02:54:19;102092.94;;;24.95;45.94
11395;BME280;5753;54.402;10.220;2023-06-14T02:56:45;102099.38;;;25.21;45.05
11395;BME280;5753;54.402;10.220;2023-06-14T02:59:11;102104.47;;;24.91;45.92
11395;BME280;5753;54.402;10.220;2023-06-14T03:01:39;102113.25;;;24.52;46.34
11395;BME280;5753;54.402;10.220;2023-06-14T03:04:10;102100.66;;;25.04;45.69
11395;BME280;5753;54.402;10.220;2023-06-14T03:06:36;102095.06;;;25.18;44.86
11395;BME280;5753;54.402;10.220;2023-06-14T03:09:03;102091.97;;;24.99;45.81
11395;BME280;5753;54.402;10.220;2023-06-14T03:11:32;102096.16;;;25.43;44.69
11395;BME280;5753;54.402;10.220;2023-06-14T03:13:58;102104.44;;;25.30;44.80
11395;BME280;5753;54.402;10.220;2023-06-14T03:16:25;102100.66;;;25.04;45.33
11395;BME280;5753;54.402;10.220;2023-06-14T03:18:52;102110.22;;;25.10;45.61
11395;BME280;5753;54.402;10.220;2023-06-14T03:21:19;102109.47;;;25.39;44.69
11395;BME280;5753;54.402;10.220;2023-06-14T03:23:46;102110.28;;;25.41;44.85
11395;BME280;5753;54.402;10.220;2023-06-14T03:26:13;102117.94;;;25.18;45.43
11395;BME280;5753;54.402;10.220;2023-06-14T03:28:43;102116.28;;;25.48;44.39
11395;BME280;5753;54.402;10.220;2023-06-14T03:31:09;102116.19;;;25.51;44.17
11395;BME280;5753;54.402;10.220;2023-06-14T03:33:35;102116.31;;;25.46;44.55
11395;BME280;5753;54.402;10.220;2023-06-14T03:36:02;102118.28;;;25.38;44.67
11395;BME280;5753;54.402;10.220;2023-06-14T03:38:29;102119.56;;;25.57;44.44
11395;BME280;5753;54.402;10.220;2023-06-14T03:40:55;102115.34;;;25.50;44.59
11395;BME280;5753;54.402;10.220;2023-06-14T03:43:21;102111.66;;;25.57;44.24
11395;BME280;5753;54.402;10.220;2023-06-14T03:45:47;102116.13;;;25.54;44.63
11395;BME280;5753;54.402;10.220;2023-06-14T03:48:13;102121.75;;;25.04;45.83
11395;BME280;5753;54.402;10.220;2023-06-14T03:50:40;102128.66;;;25.12;46.37
11395;BME280;5753;54.402;10.220;2023-06-14T03:53:06;102125.75;;;25.56;45.43
11395;BME280;5753;54.402;10.220;2023-06-14T03:55:32;102119.47;;;25.62;45.21
11395;BME280;5753;54.402;10.220;2023-06-14T03:57:59;102125.91;;;25.84;44.67
11395;BME280;5753;54.402;10.220;2023-06-14T04:00:25;102129.16;;;25.94;44.90
11395;BME280;5753;54.402;10.220;2023-06-14T04:02:52;102134.88;;;26.11;44.24
11395;BME280;5753;54.402;10.220;2023-06-14T04:05:18;102127.41;;;26.25;44.15
11395;BME280;5753;54.402;10.220;2023-06-14T04:07:45;102130.94;;;25.61;45.49
11395;BME280;5753;54.402;10.220;2023-06-14T04:10:15;102130.63;;;26.06;45.16
11395;BME280;5753;54.402;10.220;2023-06-14T04:12:42;102127.63;;;26.18;44.66
11395;BME280;5753;54.402;10.220;2023-06-14T04:15:09;102132.84;;;25.88;45.40
11395;BME280;5753;54.402;10.220;2023-06-14T04:17:36;102141.97;;;26.09;45.13
11395;BME280;5753;54.402;10.220;2023-06-14T04:20:03;102135.38;;;25.59;46.52
11395;BME280;5753;54.402;10.220;2023-06-14T04:22:31;102139.50;;;26.03;45.31
11395;BME280;5753;54.402;10.220;2023-06-14T04:24:58;102142.22;;;26.00;45.72
11395;BME280;5753;54.402;10.220;2023-06-14T04:27:28;102150.13;;;26.01;45.92
11395;BME280;5753;54.402;10.220;2023-06-14T04:29:56;102144.97;;;26.87;43.64
11395;BME280;5753;54.402;10.220;2023-06-14T04:32:27;102146.78;;;26.85;43.96
11395;BME280;5753;54.402;10.220;2023-06-14T04:35:01;102147.13;;;26.74;43.62
11395;BME280;5753;54.402;10.220;2023-06-14T04:37:28;102143.53;;;26.47;44.75
11395;BME280;5753;54.402;10.220;2023-06-14T04:39:56;102152.22;;;26.80;44.47
11395;BME280;5753;54.402;10.220;2023-06-14T04:42:23;102149.06;;;26.69;44.32
11395;BME280;5753;54.402;10.220;2023-06-14T04:44:51;102150.69;;;27.29;43.87
11395;BME280;5753;54.402;10.220;2023-06-14T04:47:21;102155.97;;;26.73;44.28
11395;BME280;5753;54.402;10.220;2023-06-14T04:49:47;102152.75;;;27.21;43.75
11395;BME280;5753;54.402;10.220;2023-06-14T04:52:14;102154.22;;;27.56;42.58
11395;BME280;5753;54.402;10.220;2023-06-14T04:54:41;102157.28;;;26.60;44.60
11395;BME280;5753;54.402;10.220;2023-06-14T04:57:08;102155.13;;;28.06;42.05
11395;BME280;5753;54.402;10.220;2023-06-14T04:59:39;102159.34;;;26.78;44.51
11395;BME280;5753;54.402;10.220;2023-06-14T05:02:06;102159.75;;;28.01;41.79
11395;BME280;5753;54.402;10.220;2023-06-14T05:04:33;102165.59;;;28.34;41.44
11395;BME280;5753;54.402;10.220;2023-06-14T05:06:59;102159.13;;;28.43;40.92
11395;BME280;5753;54.402;10.220;2023-06-14T05:09:27;102167.06;;;28.18;41.61
11395;BME280;5753;54.402;10.220;2023-06-14T05:11:53;102165.25;;;27.95;41.80
11395;BME280;5753;54.402;10.220;2023-06-14T05:14:19;102165.06;;;27.22;42.26
11395;BME280;5753;54.402;10.220;2023-06-14T05:16:45;102164.75;;;28.34;41.40
11395;BME280;5753;54.402;10.220;2023-06-14T05:19:12;102173.22;;;27.95;41.60
11395;BME280;5753;54.402;10.220;2023-06-14T05:21:38;102168.47;;;26.99;42.99
11395;BME280;5753;54.402;10.220;2023-06-14T05:24:05;102167.88;;;28.92;40.31
11395;BME280;5753;54.402;10.220;2023-06-14T05:26:31;102167.34;;;29.26;38.97
11395;BME280;5753;54.402;10.220;2023-06-14T05:28:57;102170.97;;;30.07;38.27
11395;BME280;5753;54.402;10.220;2023-06-14T05:31:24;102168.41;;;29.00;39.09
11395;BME280;5753;54.402;10.220;2023-06-14T05:33:52;102171.34;;;28.22;41.07
11395;BME280;5753;54.402;10.220;2023-06-14T05:36:18;102172.22;;;28.69;39.94
11395;BME280;5753;54.402;10.220;2023-06-14T05:38:46;102173.34;;;28.64;39.80
11395;BME280;5753;54.402;10.220;2023-06-14T05:41:12;102173.22;;;29.12;38.68
11395;BME280;5753;54.402;10.220;2023-06-14T05:43:38;102172.91;;;28.74;39.20
11395;BME280;5753;54.402;10.220;2023-06-14T05:46:04;102177.22;;;28.55;39.66
11395;BME280;5753;54.402;10.220;2023-06-14T05:48:33;102182.31;;;28.36;40.01
11395;BME280;5753;54.402;10.220;2023-06-14T05:51:00;102172.28;;;29.97;37.47
11395;BME280;5753;54.402;10.220;2023-06-14T05:53:26;102179.72;;;29.49;38.52
11395;BME280;5753;54.402;10.220;2023-06-14T05:55:52;102177.06;;;29.49;38.26
11395;BME280;5753;54.402;10.220;2023-06-14T05:58:21;102174.56;;;30.06;37.19
11395;BME280;5753;54.402;10.220;2023-06-14T06:00:47;102185.03;;;29.69;37.94
11395;BME280;5753;54.402;10.220;2023-06-14T06:03:14;102185.25;;;29.21;38.15
11395;BME280;5753;54.402;10.220;2023-06-14T06:05:40;102182.50;;;29.45;38.42
11395;BME280;5753;54.402;10.220;2023-06-14T06:08:06;102184.34;;;29.86;37.65
11395;BME280;5753;54.402;10.220;2023-06-14T06:10:32;102187.44;;;29.75;37.38
11395;BME280;5753;54.402;10.220;2023-06-14T06:12:58;102188.97;;;29.60;37.64
11395;BME280;5753;54.402;10.220;2023-06-14T06:15:24;102187.59;;;30.33;36.70
11395;BME280;5753;54.402;10.220;2023-06-14T06:17:50;102187.69;;;30.69;36.09
11395;BME280;5753;54.402;10.220;2023-06-14T06:20:17;102204.91;;;29.17;38.09
11395;BME280;5753;54.402;10.220;2023-06-14T06:22:43;102195.56;;;29.28;38.19
11395;BME280;5753;54.402;10.220;2023-06-14T06:25:09;102204.72;;;29.21;38.62
11395;BME280;5753;54.402;10.220;2023-06-14T06:27:35;102191.03;;;29.54;37.64
11395;BME280;5753;54.402;10.220;2023-06-14T06:30:03;102205.03;;;29.13;38.47
11395;BME280;5753;54.402;10.220;2023-06-14T06:32:30;102193.13;;;30.47;36.94
11395;BME280;5753;54.402;10.220;2023-06-14T06:34:56;102195.81;;;30.27;37.16
11395;BME280;5753;54.402;10.220;2023-06-14T06:37:22;102194.31;;;30.60;36.99
11395;BME280;5753;54.402;10.220;2023-06-14T06:39:48;102195.06;;;30.04;37.38
11395;BME280;5753;54.402;10.220;2023-06-14T06:42:14;102196.56;;;30.10;37.35
11395;BME280;5753;54.402;10.220;2023-06-14T06:44:40;102209.84;;;29.04;39.33
11395;BME280;5753;54.402;10.220;2023-06-14T06:47:06;102207.66;;;29.99;37.85
11395;BME280;5753;54.402;10.220;2023-06-14T06:49:33;102205.00;;;30.20;37.55
11395;BME280;5753;54.402;10.220;2023-06-14T06:52:06;102206.72;;;30.80;36.61
11395;BME280;5753;54.402;10.220;2023-06-14T06:54:33;102211.56;;;30.70;36.66
11395;BME280;5753;54.402;10.220;2023-06-14T06:56:59;102207.63;;;30.79;36.27
11395;BME280;5753;54.402;10.220;2023-06-14T06:59:27;102219.81;;;31.76;34.43
11395;BME280;5753;54.402;10.220;2023-06-14T07:01:53;102217.34;;;30.99;35.81
11395;BME280;5753;54.402;10.220;2023-06-14T07:04:19;102221.53;;;31.41;34.83
11395;BME280;5753;54.402;10.220;2023-06-14T07:06:46;102221.97;;;30.77;35.18
11395;BME280;5753;54.402;10.220;2023-06-14T07:09:13;102221.06;;;31.33;35.40
11395;BME280;5753;54.402;10.220;2023-06-14T07:11:40;102221.88;;;30.97;35.67
11395;BME280;5753;54.402;10.220;2023-06-14T07:14:07;102224.69;;;30.16;36.27
11395;BME280;5753;54.402;10.220;2023-06-14T07:16:33;102228.75;;;31.39;34.68
11395;BME280;5753;54.402;10.220;2023-06-14T07:18:59;102231.38;;;31.02;35.61
11395;BME280;5753;54.402;10.220;2023-06-14T07:21:26;102230.31;;;31.25;35.45
11395;BME280;5753;54.402;10.220;2023-06-14T07:23:56;102228.94;;;31.53;34.60
11395;BME280;5753;54.402;10.220;2023-06-14T07:26:22;102232.44;;;31.72;34.52
11395;BME280;5753;54.402;10.220;2023-06-14T07:28:49;102235.34;;;31.85;34.14
11395;BME280;5753;54.402;10.220;2023-06-14T07:31:16;102237.41;;;31.61;34.21
11395;BME280;5753;54.402;10.220;2023-06-14T07:33:43;102239.78;;;30.35;36.09
11395;BME280;5753;54.402;10.220;2023-06-14T07:36:09;102226.06;;;30.84;35.81
11395;BME280;5753;54.402;10.220;2023-06-14T07:38:35;102232.72;;;31.11;36.33
11395;BME280;5753;54.402;10.220;2023-06-14T07:41:02;102233.84;;;31.97;34.36
11395;BME280;5753;54.402;10.220;2023-06-14T07:43:29;102241.22;;;31.74;34.85
11395;BME280;5753;54.402;10.220;2023-06-14T07:45:55;102236.63;;;32.11;34.32
11395;BME280;5753;54.402;10.220;2023-06-14T07:48:22;102241.00;;;31.60;33.70
11395;BME280;5753;54.402;10.220;2023-06-14T07:50:48;102233.66;;;31.10;35.02
11395;BME280;5753;54.402;10.220;2023-06-14T07:53:14;102238.31;;;32.31;33.62
11395;BME280;5753;54.402;10.220;2023-06-14T07:55:41;102235.56;;;32.32;32.56
11395;BME280;5753;54.402;10.220;2023-06-14T07:58:09;102250.84;;;32.79;32.59
11395;BME280;5753;54.402;10.220;2023-06-14T08:00:35;102244.69;;;31.76;34.84
11395;BME280;5753;54.402;10.220;2023-06-14T08:03:01;102243.97;;;31.37;35.43
11395;BME280;5753;54.402;10.220;2023-06-14T08:05:29;102245.78;;;30.98;36.03
11395;BME280;5753;54.402;10.220;2023-06-14T08:07:55;102251.16;;;30.39;37.48
11395;BME280;5753;54.402;10.220;2023-06-14T08:10:22;102263.69;;;31.33;35.94
11395;BME280;5753;54.402;10.220;2023-06-14T08:12:48;102246.72;;;31.88;35.03
11395;BME280;5753;54.402;10.220;2023-06-14T08:15:16;102251.16;;;31.35;35.37
11395;BME280;5753;54.402;10.220;2023-06-14T08:17:45;102253.66;;;30.62;36.79
11395;BME280;5753;54.402;10.220;2023-06-14T08:20:12;102256.81;;;31.28;36.67
11395;BME280;5753;54.402;10.220;2023-06-14T08:22:39;102244.69;;;31.21;35.58
11395;BME280;5753;54.402;10.220;2023-06-14T08:25:08;102249.44;;;30.96;36.49
11395;BME280;5753;54.402;10.220;2023-06-14T08:27:35;102244.75;;;30.43;37.39
11395;BME280;5753;54.402;10.220;2023-06-14T08:30:02;102252.81;;;31.90;35.05
11395;BME280;5753;54.402;10.220;2023-06-14T08:32:29;102248.00;;;31.08;35.86
11395;BME280;5753;54.402;10.220;2023-06-14T08:34:55;102247.56;;;30.20;37.75
11395;BME280;5753;54.402;10.220;2023-06-14T08:37:21;102246.44;;;31.22;36.04
11395;BME280;5753;54.402;10.220;2023-06-14T08:39:47;102253.44;;;31.96;34.76
11395;BME280;5753;54.402;10.220;2023-06-14T08:42:14;102255.56;;;31.89;35.60
11395;BME280;5753;54.402;10.220;2023-06-14T08:44:41;102253.53;;;31.58;35.86
11395;BME280;5753;54.402;10.220;2023-06-14T08:47:08;102254.78;;;31.87;35.04
11395;BME280;5753;54.402;10.220;2023-06-14T08:49:37;102253.03;;;31.33;35.47
11395;BME280;5753;54.402;10.220;2023-06-14T08:52:04;102251.97;;;31.54;35.38
11395;BME280;5753;54.402;10.220;2023-06-14T08:54:31;102250.63;;;32.33;34.37
11395;BME280;5753;54.402;10.220;2023-06-14T08:57:00;102248.28;;;31.92;35.06
11395;BME280;5753;54.402;10.220;2023-06-14T08:59:27;102259.22;;;31.14;36.15
11395;BME280;5753;54.402;10.220;2023-06-14T09:01:54;102253.22;;;31.47;35.69
11395;BME280;5753;54.402;10.220;2023-06-14T09:04:21;102255.75;;;33.02;33.84
11395;BME280;5753;54.402;10.220;2023-06-14T09:06:48;102258.31;;;31.70;34.97
11395;BME280;5753;54.402;10.220;2023-06-14T09:09:21;102253.44;;;30.67;36.77
11395;BME280;5753;54.402;10.220;2023-06-14T09:11:51;102258.25;;;32.90;33.72
11395;BME280;5753;54.402;10.220;2023-06-14T09:14:23;102261.59;;;32.60;33.83
11395;BME280;5753;54.402;10.220;2023-06-14T09:16:53;102256.47;;;32.73;33.47
11395;BME280;5753;54.402;10.220;2023-06-14T09:19:26;102250.41;;;31.67;35.10
11395;BME280;5753;54.402;10.220;2023-06-14T09:21:53;102258.78;;;31.96;34.57
11395;BME280;5753;54.402;10.220;2023-06-14T09:24:19;102255.66;;;31.51;35.20
11395;BME280;5753;54.402;10.220;2023-06-14T09:26:51;102259.53;;;30.89;36.24
11395;BME280;5753;54.402;10.220;2023-06-14T09:29:18;102255.53;;;30.60;36.67
11395;BME280;5753;54.402;10.220;2023-06-14T09:31:46;102257.34;;;30.39;37.09
11395;BME280;5753;54.402;10.220;2023-06-14T09:34:13;102260.56;;;31.24;35.55
11395;BME280;5753;54.402;10.220;2023-06-14T09:36:40;102266.72;;;31.61;35.45
11395;BME280;5753;54.402;10.220;2023-06-14T09:39:08;102258.38;;;32.71;33.97
11395;BME280;5753;54.402;10.220;2023-06-14T09:41:41;102259.28;;;32.87;33.30
11395;BME280;5753;54.402;10.220;2023-06-14T09:44:10;102270.59;;;33.24;32.61
11395;BME280;5753;54.402;10.220;2023-06-14T09:46:37;102268.84;;;32.91;33.24
11395;BME280;5753;54.402;10.220;2023-06-14T09:49:06;102265.59;;;34.67;31.86
11395;BME280;5753;54.402;10.220;2023-06-14T09:51:32;102265.94;;;33.43;32.66
11395;BME280;5753;54.402;10.220;2023-06-14T09:54:03;102262.97;;;32.51;34.09
11395;BME280;5753;54.402;10.220;2023-06-14T09:56:42;102265.97;;;33.57;32.50
11395;BME280;5753;54.402;10.220;2023-06-14T09:59:10;102260.56;;;32.47;33.58
11395;BME280;5753;54.402;10.220;2023-06-14T10:01:42;102271.19;;;33.60;32.56
11395;BME280;5753;54.402;10.220;2023-06-14T10:04:10;102265.47;;;33.51;31.99
11395;BME280;5753;54.402;10.220;2023-06-14T10:06:45;102264.63;;;33.50;31.72
11395;BME280;5753;54.402;10.220;2023-06-14T10:09:12;102260.97;;;33.83;31.32
11395;BME280;5753;54.402;10.220;2023-06-14T10:11:38;102261.38;;;34.05;31.17
11395;BME280;5753;54.402;10.220;2023-06-14T10:14:10;102249.91;;;33.73;31.59
11395;BME280;5753;54.402;10.220;2023-06-14T10:17:04;102256.31;;;34.59;30.52
11395;BME280;5753;54.402;10.220;2023-06-14T10:19:46;102251.13;;;34.84;30.28
11395;BME280;5753;54.402;10.220;2023-06-14T10:22:21;102259.94;;;33.69;31.79
11395;BME280;5753;54.402;10.220;2023-06-14T10:24:50;102255.56;;;33.05;31.75
11395;BME280;5753;54.402;10.220;2023-06-14T10:27:17;102258.16;;;33.23;32.51
11395;BME280;5753;54.402;10.220;2023-06-14T10:32:25;102251.63;;;33.74;31.58
11395;BME280;5753;54.402;10.220;2023-06-14T10:34:57;102246.72;;;34.69;30.15
11395;BME280;5753;54.402;10.220;2023-06-14T10:37:23;102252.59;;;35.71;29.58
11395;BME280;5753;54.402;10.220;2023-06-14T10:39:50;102246.69;;;34.97;29.33
11395;BME280;5753;54.402;10.220;2023-06-14T10:42:17;102250.41;;;35.50;28.88
11395;BME280;5753;54.402;10.220;2023-06-14T10:44:49;102257.09;;;33.57;30.99
11395;BME280;5753;54.402;10.220;2023-06-14T10:47:35;102241.69;;;33.92;30.54
11395;BME280;5753;54.402;10.220;2023-06-14T10:50:11;102246.16;;;34.35;29.88
11395;BME280;5753;54.402;10.220;2023-06-14T10:52:42;102241.81;;;35.31;28.53
11395;BME280;5753;54.402;10.220;2023-06-14T10:55:13;102240.78;;;35.60;27.89
11395;BME280;5753;54.402;10.220;2023-06-14T10:57:55;102247.53;;;35.12;29.25
11395;BME280;5753;54.402;10.220;2023-06-14T11:00:24;102245.03;;;36.79;26.65
11395;BME280;5753;54.402;10.220;2023-06-14T11:10:59;102242.19;;;35.39;27.60
11395;BME280;5753;54.402;10.220;2023-06-14T11:13:26;102246.13;;;35.07;27.54
11395;BME280;5753;54.402;10.220;2023-06-14T11:15:52;102237.88;;;36.54;26.50
11395;BME280;5753;54.402;10.220;2023-06-14T11:18:21;102235.94;;;36.43;26.41
11395;BME280;5753;54.402;10.220;2023-06-14T11:20:50;102240.97;;;36.10;26.04
11395;BME280;5753;54.402;10.220;2023-06-14T11:23:16;102232.38;;;34.70;27.13
11395;BME280;5753;54.402;10.220;2023-06-14T11:25:42;102228.63;;;36.33;26.05
11395;BME280;5753;54.402;10.220;2023-06-14T11:28:08;102232.00;;;37.81;24.72
11395;BME280;5753;54.402;10.220;2023-06-14T11:30:34;102227.97;;;36.16;25.73
11395;BME280;5753;54.402;10.220;2023-06-14T11:33:00;102226.50;;;36.87;25.15
11395;BME280;5753;54.402;10.220;2023-06-14T11:35:27;102228.25;;;37.12;25.33
11395;BME280;5753;54.402;10.220;2023-06-14T11:37:56;102222.38;;;37.66;24.36
11395;BME280;5753;54.402;10.220;2023-06-14T11:40:26;102214.53;;;37.28;24.51
11395;BME280;5753;54.402;10.220;2023-06-14T11:43:00;102217.72;;;37.57;24.18
11395;BME280;5753;54.402;10.220;2023-06-14T11:45:27;102217.66;;;38.49;23.82
11395;BME280;5753;54.402;10.220;2023-06-14T11:47:55;102214.94;;;38.83;24.77
11395;BME280;5753;54.402;10.220;2023-06-14T11:50:26;102219.81;;;37.99;23.79
11395;BME280;5753;54.402;10.220;2023-06-14T11:52:59;102220.41;;;37.09;24.22
11395;BME280;5753;54.402;10.220;2023-06-14T11:55:39;102219.88;;;36.80;24.65
11395;BME280;5753;54.402;10.220;2023-06-14T11:58:06;102214.78;;;36.75;23.79
11395;BME280;5753;54.402;10.220;2023-06-14T12:00:35;102211.22;;;36.87;24.49
11395;BME280;5753;54.402;10.220;2023-06-14T12:03:01;102216.88;;;39.35;22.92
11395;BME280;5753;54.402;10.220;2023-06-14T12:05:27;102213.69;;;38.87;23.45
11395;BME280;5753;54.402;10.220;2023-06-14T12:08:00;102205.13;;;38.03;23.86
11395;BME280;5753;54.402;10.220;2023-06-14T12:10:29;102214.69;;;38.52;22.75
11395;BME280;5753;54.402;10.220;2023-06-14T12:12:59;102208.19;;;37.64;24.07
11395;BME280;5753;54.402;10.220;2023-06-14T12:15:28;102200.47;;;38.72;22.81
11395;BME280;5753;54.402;10.220;2023-06-14T12:17:58;102200.13;;;39.94;22.07
11395;BME280;5753;54.402;10.220;2023-06-14T12:20:29;102196.75;;;40.02;22.50
11395;BME280;5753;54.402;10.220;2023-06-14T12:23:02;102204.09;;;40.61;21.89
11395;BME280;5753;54.402;10.220;2023-06-14T12:25:30;102194.91;;;40.02;22.40
11395;BME280;5753;54.402;10.220;2023-06-14T12:28:05;102207.69;;;42.06;20.24
11395;BME280;5753;54.402;10.220;2023-06-14T12:30:32;102207.69;;;39.79;22.41
11395;BME280;5753;54.402;10.220;2023-06-14T12:32:58;102199.56;;;41.30;21.28
11395;BME280;5753;54.402;10.220;2023-06-14T12:35:24;102211.06;;;40.53;21.67
11395;BME280;5753;54.402;10.220;2023-06-14T12:37:50;102204.94;;;41.78;21.26
11395;BME280;5753;54.402;10.220;2023-06-14T12:40:16;102198.94;;;41.07;21.15
11395;BME280;5753;54.402;10.220;2023-06-14T12:42:44;102209.47;;;42.62;19.62
11395;BME280;5753;54.402;10.220;2023-06-14T12:45:10;102196.44;;;42.38;19.86
11395;BME280;5753;54.402;10.220;2023-06-14T12:47:36;102205.66;;;44.39;18.65
11395;BME280;5753;54.402;10.220;2023-06-14T12:50:03;102197.81;;;41.77;19.83
11395;BME280;5753;54.402;10.220;2023-06-14T12:52:29;102202.41;;;43.32;18.73
11395;BME280;5753;54.402;10.220;2023-06-14T12:54:56;102191.09;;;43.19;18.85
11395;BME280;5753;54.402;10.220;2023-06-14T12:57:22;102201.56;;;44.85;17.68
11395;BME280;5753;54.402;10.220;2023-06-14T12:59:48;102202.28;;;42.06;20.43
11395;BME280;5753;54.402;10.220;2023-06-14T13:02:17;102203.63;;;44.92;18.01
11395;BME280;5753;54.402;10.220;2023-06-14T13:04:44;102195.53;;;44.15;18.33
11395;BME280;5753;54.402;10.220;2023-06-14T13:07:10;102199.25;;;45.39;17.54